createdAt,value
2024-04-30T00:01:01.489Z,11.22
2024-04-30T00:03:31.084Z,11.21
2024-04-30T00:06:00.614Z,11.15
2024-04-30T00:08:30.084Z,11.16
2024-04-30T00:10:57.103Z,11.16
2024-04-30T00:13:23.903Z,11.09
2024-04-30T00:15:53.519Z,10.89
2024-04-30T00:18:20.278Z,10.80
2024-04-30T00:20:49.603Z,10.69
2024-04-30T00:23:19.182Z,10.61
2024-04-30T00:25:48.494Z,10.49
2024-04-30T00:28:15.307Z,10.69
2024-04-30T00:30:44.918Z,10.69
2024-04-30T00:33:11.679Z,10.68
2024-04-30T00:35:40.997Z,10.63
2024-04-30T00:38:07.721Z,10.50
2024-04-30T00:40:39.813Z,10.44
2024-04-30T00:43:06.584Z,10.45
2024-04-30T00:45:35.968Z,10.41
2024-04-30T00:48:06.175Z,10.01
2024-04-30T00:50:34.385Z,9.96
2024-04-30T00:53:05.518Z,10.38
2024-04-30T00:55:32.552Z,10.36
2024-04-30T00:58:05.018Z,10.45
2024-04-30T01:00:31.798Z,10.61
2024-04-30T01:03:01.337Z,10.54
2024-04-30T01:05:28.276Z,10.28
2024-04-30T01:07:57.568Z,10.26
2024-04-30T01:10:25.042Z,10.22
2024-04-30T01:12:56.964Z,10.31
2024-04-30T01:15:26.421Z,10.32
2024-04-30T01:17:55.995Z,10.33
2024-04-30T01:20:22.792Z,10.35
2024-04-30T01:22:54.716Z,10.31
2024-04-30T01:25:21.705Z,10.36
2024-04-30T01:27:51.032Z,10.45
2024-04-30T01:30:17.767Z,10.41
2024-04-30T01:32:47.234Z,10.38
2024-04-30T01:35:14.515Z,10.29
2024-04-30T01:37:43.843Z,10.28
2024-04-30T01:40:13.885Z,10.22
2024-04-30T01:42:43.204Z,10.25
2024-04-30T01:45:10.183Z,10.18
2024-04-30T01:47:39.884Z,10.01
2024-04-30T01:50:07.421Z,9.97
2024-04-30T01:52:36.804Z,9.98
2024-04-30T01:55:03.874Z,9.85
2024-04-30T01:57:35.962Z,9.82
2024-04-30T02:00:02.746Z,9.72
2024-04-30T02:02:32.333Z,9.75
2024-04-30T02:05:02.247Z,9.64
2024-04-30T02:07:34.359Z,9.69
2024-04-30T02:10:01.217Z,9.61
2024-04-30T02:12:30.633Z,9.63
2024-04-30T02:14:59.990Z,9.63
2024-04-30T02:17:29.895Z,9.53
2024-04-30T02:19:56.757Z,9.45
2024-04-30T02:22:26.488Z,9.51
2024-04-30T02:24:53.500Z,9.52
2024-04-30T02:27:23.053Z,9.45
2024-04-30T02:29:50.274Z,9.56
2024-04-30T02:32:38.026Z,9.40
2024-04-30T02:35:07.770Z,9.41
2024-04-30T02:37:37.185Z,9.37
2024-04-30T02:40:07.157Z,9.33
2024-04-30T02:42:36.566Z,9.26
2024-04-30T02:45:03.783Z,9.30
2024-04-30T02:47:35.899Z,9.19
2024-04-30T02:50:02.665Z,9.18
2024-04-30T02:52:32.143Z,9.07
2024-04-30T02:54:59.166Z,8.95
2024-04-30T02:57:28.816Z,8.88
2024-04-30T02:59:55.540Z,8.88
2024-04-30T03:02:24.917Z,8.75
2024-04-30T03:04:54.884Z,8.75
2024-04-30T03:07:24.302Z,8.73
2024-04-30T03:09:51.311Z,8.74
2024-04-30T03:12:20.636Z,8.72
2024-04-30T03:14:47.830Z,8.86
2024-04-30T03:17:17.580Z,8.82
2024-04-30T03:19:46.942Z,8.72
2024-04-30T03:22:16.668Z,8.68
2024-04-30T03:24:45.971Z,8.76
2024-04-30T03:27:12.750Z,8.82
2024-04-30T03:29:44.247Z,8.72
2024-04-30T03:32:10.957Z,8.66
2024-04-30T03:34:40.509Z,8.52
2024-04-30T03:37:09.833Z,8.52
2024-04-30T03:39:41.888Z,8.48
2024-04-30T03:42:12.238Z,8.46
2024-04-30T03:44:42.216Z,8.50
2024-04-30T03:47:11.837Z,8.56
2024-04-30T03:49:41.609Z,8.54
2024-04-30T03:52:11.033Z,8.55
2024-04-30T03:54:40.638Z,8.61
2024-04-30T03:57:10.278Z,8.64
2024-04-30T03:59:37.048Z,8.59
2024-04-30T04:02:06.998Z,8.53
2024-04-30T04:04:33.875Z,8.54
2024-04-30T04:07:03.552Z,8.49
2024-04-30T04:09:30.313Z,8.47
2024-04-30T04:12:18.364Z,8.50
2024-04-30T04:14:52.142Z,8.52
2024-04-30T04:17:22.948Z,8.57
2024-04-30T04:19:52.687Z,8.42
2024-04-30T04:22:22.361Z,8.41
2024-04-30T04:24:49.359Z,8.36
2024-04-30T04:27:21.553Z,8.46
2024-04-30T04:29:48.584Z,8.56
2024-04-30T04:32:18.161Z,8.61
2024-04-30T04:34:44.924Z,8.64
2024-04-30T04:37:14.512Z,8.66
2024-04-30T04:39:41.253Z,8.46
2024-04-30T04:42:11.018Z,8.51
2024-04-30T04:44:40.355Z,8.65
2024-04-30T04:47:09.882Z,8.74
2024-04-30T04:49:37.100Z,8.72
2024-04-30T04:52:07.020Z,8.81
2024-04-30T04:54:34.079Z,8.84
2024-04-30T04:57:03.420Z,8.76
2024-04-30T04:59:30.830Z,8.99
2024-04-30T05:02:03.080Z,9.03
2024-04-30T05:04:30.042Z,9.11
2024-04-30T05:07:01.894Z,9.16
2024-04-30T05:09:29.282Z,9.25
2024-04-30T05:11:58.822Z,9.32
2024-04-30T05:14:25.581Z,9.40
2024-04-30T05:16:55.329Z,9.52
2024-04-30T05:19:24.862Z,9.47
2024-04-30T05:21:54.445Z,9.47
2024-04-30T05:24:21.169Z,9.51
2024-04-30T05:26:50.747Z,9.45
2024-04-30T05:29:18.032Z,9.65
2024-04-30T05:31:47.388Z,9.78
2024-04-30T05:34:14.152Z,9.84
2024-04-30T05:36:46.303Z,9.91
2024-04-30T05:39:13.134Z,9.94
2024-04-30T05:41:42.487Z,10.08
2024-04-30T05:44:09.539Z,10.07
2024-04-30T05:46:38.959Z,10.22
2024-04-30T05:49:05.820Z,10.21
2024-04-30T05:51:35.259Z,10.29
2024-04-30T05:54:04.898Z,10.37
2024-04-30T05:56:34.474Z,10.41
2024-04-30T05:59:03.936Z,10.53
2024-04-30T06:01:30.743Z,10.64
2024-04-30T06:04:00.171Z,10.68
2024-04-30T06:06:27.058Z,10.75
2024-04-30T06:08:57.703Z,10.81
2024-04-30T06:11:27.418Z,10.95
2024-04-30T06:13:56.966Z,11.07
2024-04-30T06:16:23.795Z,10.95
2024-04-30T06:18:53.168Z,11.19
2024-04-30T06:21:30.611Z,11.42
2024-04-30T06:24:01.276Z,11.49
2024-04-30T06:26:30.592Z,11.63
2024-04-30T06:28:59.895Z,11.81
2024-04-30T06:31:26.771Z,11.85
2024-04-30T06:33:56.218Z,11.78
2024-04-30T06:36:23.280Z,12.09
2024-04-30T06:38:52.577Z,12.24
2024-04-30T06:41:19.628Z,12.33
2024-04-30T06:43:51.542Z,12.47
2024-04-30T06:46:18.331Z,12.49
2024-04-30T06:48:48.937Z,12.62
2024-04-30T06:51:16.278Z,12.73
2024-04-30T06:53:45.847Z,12.88
2024-04-30T06:56:12.615Z,13.05
2024-04-30T06:58:42.230Z,13.15
2024-04-30T07:01:11.605Z,13.29
2024-04-30T07:03:40.965Z,13.42
2024-04-30T07:06:07.743Z,13.46
2024-04-30T07:08:37.059Z,13.52
2024-04-30T07:11:04.337Z,13.52
2024-04-30T07:13:33.769Z,13.63
2024-04-30T07:16:00.743Z,13.78
2024-04-30T07:18:33.256Z,13.88
2024-04-30T07:21:02.936Z,13.98
2024-04-30T07:23:29.779Z,14.07
2024-04-30T07:25:59.058Z,14.25
2024-04-30T07:28:26.695Z,14.45
2024-04-30T07:30:56.200Z,14.49
2024-04-30T07:33:23.200Z,14.64
2024-04-30T07:35:55.189Z,14.85
2024-04-30T07:38:22.406Z,15.06
2024-04-30T07:40:51.958Z,15.14
2024-04-30T07:43:19.092Z,15.01
2024-04-30T07:45:48.439Z,15.21
2024-04-30T07:48:15.641Z,15.41
2024-04-30T07:50:44.980Z,15.64
2024-04-30T07:53:14.315Z,15.69
2024-04-30T07:55:44.049Z,15.85
2024-04-30T07:58:11.249Z,16.04
2024-04-30T08:04:37.629Z,16.45
2024-04-30T08:07:04.894Z,16.46
2024-04-30T08:09:36.880Z,16.66
2024-04-30T08:12:04.466Z,16.52
2024-04-30T08:14:36.090Z,16.84
2024-04-30T08:17:03.839Z,16.99
2024-04-30T08:19:33.608Z,16.85
2024-04-30T08:22:00.462Z,17.17
2024-04-30T08:24:30.055Z,17.16
2024-04-30T08:26:59.486Z,17.24
2024-04-30T08:29:28.819Z,17.52
2024-04-30T08:31:56.339Z,17.67
2024-04-30T08:34:25.777Z,17.85
2024-04-30T08:36:52.866Z,17.92
2024-04-30T08:39:22.196Z,17.96
2024-04-30T08:41:49.556Z,18.20
2024-04-30T08:44:23.363Z,18.45
2024-04-30T08:46:52.744Z,18.38
2024-04-30T08:49:33.718Z,18.55
2024-04-30T08:52:06.140Z,18.84
2024-04-30T08:54:37.015Z,18.83
2024-04-30T08:57:04.555Z,19.06
2024-04-30T08:59:38.758Z,19.43
2024-04-30T09:02:07.141Z,19.78
2024-04-30T09:04:39.121Z,19.66
2024-04-30T09:07:06.833Z,20.05
2024-04-30T09:09:36.300Z,20.50
2024-04-30T09:12:04.461Z,20.76
2024-04-30T09:14:45.569Z,20.98
2024-04-30T09:17:12.552Z,21.15
2024-04-30T09:19:42.250Z,21.53
2024-04-30T09:22:09.375Z,21.90
2024-04-30T09:24:49.284Z,22.07
2024-04-30T09:27:16.258Z,22.16
2024-04-30T09:29:48.220Z,21.82
2024-04-30T09:32:22.005Z,21.87
2024-04-30T09:34:54.244Z,22.20
2024-04-30T09:37:22.429Z,22.77
2024-04-30T09:39:58.372Z,23.17
2024-04-30T09:42:28.551Z,23.16
2024-04-30T09:45:03.848Z,22.68
2024-04-30T09:47:33.615Z,22.60
2024-04-30T09:50:05.280Z,22.62
2024-04-30T09:52:35.819Z,22.88
2024-04-30T09:55:06.530Z,23.18
2024-04-30T09:57:39.299Z,23.41
2024-04-30T10:00:11.558Z,23.71
2024-04-30T10:02:46.328Z,23.27
2024-04-30T10:05:19.045Z,23.29
2024-04-30T10:07:50.710Z,23.80
2024-04-30T10:10:27.374Z,24.69
2024-04-30T10:12:54.257Z,25.14
2024-04-30T10:15:33.434Z,25.62
2024-04-30T10:18:00.482Z,25.63
2024-04-30T10:20:30.176Z,25.86
2024-04-30T10:22:57.618Z,25.92
2024-04-30T10:25:27.716Z,25.83
2024-04-30T10:28:05.692Z,25.24
2024-04-30T10:30:38.518Z,25.35
2024-04-30T10:33:06.007Z,25.85
2024-04-30T10:35:42.832Z,26.23
2024-04-30T10:38:12.391Z,26.51
2024-04-30T10:40:39.508Z,26.62
2024-04-30T10:43:11.071Z,27.05
2024-04-30T10:45:40.459Z,27.13
2024-04-30T10:48:12.367Z,27.32
2024-04-30T10:50:41.892Z,27.67
2024-04-30T10:53:11.097Z,27.93
2024-04-30T10:55:43.060Z,27.69
2024-04-30T10:58:13.624Z,27.63
2024-04-30T11:00:49.216Z,27.56
2024-04-30T11:03:22.549Z,28.30
2024-04-30T11:06:01.585Z,28.03
2024-04-30T11:08:28.748Z,28.29
2024-04-30T11:11:09.784Z,28.16
2024-04-30T11:13:36.661Z,28.34
2024-04-30T11:16:14.234Z,28.01
2024-04-30T11:18:43.390Z,28.80
2024-04-30T11:21:12.791Z,29.37
2024-04-30T11:23:39.589Z,30.00
2024-04-30T11:26:08.914Z,30.09
2024-04-30T11:28:35.724Z,29.89
2024-04-30T11:31:08.091Z,29.77
2024-04-30T11:33:35.111Z,30.33
2024-04-30T11:36:04.969Z,30.86
2024-04-30T11:38:34.722Z,31.51
2024-04-30T11:41:01.594Z,31.13
2024-04-30T11:43:31.014Z,31.11
2024-04-30T11:45:57.960Z,30.45
2024-04-30T11:48:30.343Z,29.97
2024-04-30T11:50:57.343Z,28.39
2024-04-30T11:53:26.855Z,28.04
2024-04-30T11:55:53.718Z,28.46
2024-04-30T11:58:23.239Z,28.57
2024-04-30T12:00:50.370Z,28.69
2024-04-30T12:03:19.959Z,28.60
2024-04-30T12:05:52.079Z,28.75
2024-04-30T12:08:18.982Z,29.44
2024-04-30T12:10:48.647Z,30.14
2024-04-30T12:13:15.846Z,30.61
2024-04-30T12:15:45.227Z,30.57
2024-04-30T12:18:12.327Z,28.60
2024-04-30T12:20:41.959Z,28.00
2024-04-30T12:23:11.639Z,28.14
2024-04-30T12:25:41.029Z,28.39
2024-04-30T12:28:07.988Z,28.36
2024-04-30T12:30:37.359Z,28.46
2024-04-30T12:33:04.673Z,28.80
2024-04-30T12:35:35.974Z,29.48
2024-04-30T12:38:02.800Z,30.08
2024-04-30T12:40:35.522Z,30.38
2024-04-30T12:43:02.540Z,31.02
2024-04-30T12:45:32.176Z,30.58
2024-04-30T12:47:59.314Z,30.88
2024-04-30T12:50:29.139Z,30.54
2024-04-30T12:52:56.025Z,31.12
2024-04-30T12:55:25.517Z,32.16
2024-04-30T12:57:55.113Z,32.92
2024-04-30T13:00:24.524Z,32.42
2024-04-30T13:02:51.425Z,32.68
2024-04-30T13:05:20.951Z,33.02
2024-04-30T13:07:48.614Z,33.15
2024-04-30T13:10:41.416Z,33.80
2024-04-30T13:13:10.880Z,34.55
2024-04-30T13:15:40.241Z,35.04
2024-04-30T13:18:07.099Z,34.30
2024-04-30T13:20:38.476Z,34.04
2024-04-30T13:23:05.377Z,33.41
2024-04-30T13:25:34.770Z,32.87
2024-04-30T13:28:02.195Z,32.87
2024-04-30T13:30:34.233Z,33.52
2024-04-30T13:33:01.126Z,33.89
2024-04-30T13:35:31.146Z,34.36
2024-04-30T13:37:57.999Z,34.65
2024-04-30T13:40:27.907Z,35.06
2024-04-30T13:42:57.361Z,35.53
2024-04-30T13:45:24.174Z,35.91
2024-04-30T13:47:56.184Z,36.20
2024-04-30T13:50:23.298Z,36.01
2024-04-30T13:52:52.682Z,35.85
2024-04-30T13:55:19.618Z,36.05
2024-04-30T13:57:49.520Z,35.55
2024-04-30T14:00:16.648Z,35.23
2024-04-30T14:02:47.975Z,35.69
2024-04-30T14:05:17.573Z,35.41
2024-04-30T14:07:48.003Z,35.63
2024-04-30T14:10:15.055Z,36.14
2024-04-30T14:12:46.326Z,35.67
2024-04-30T14:15:15.953Z,35.84
2024-04-30T14:17:43.418Z,36.04
2024-04-30T14:20:13.216Z,36.25
2024-04-30T14:22:43.990Z,36.00
2024-04-30T14:25:13.807Z,35.87
2024-04-30T14:27:40.595Z,36.18
2024-04-30T14:30:11.462Z,35.82
2024-04-30T14:32:38.307Z,35.14
2024-04-30T14:35:08.344Z,35.58
2024-04-30T14:37:35.230Z,35.06
2024-04-30T14:40:07.827Z,34.61
2024-04-30T14:42:34.624Z,34.63
2024-04-30T14:45:04.143Z,34.43
2024-04-30T14:47:31.039Z,34.26
2024-04-30T14:50:00.556Z,34.52
2024-04-30T14:52:27.780Z,34.18
2024-04-30T14:54:58.060Z,34.50
2024-04-30T14:57:27.828Z,34.56
2024-04-30T14:59:57.451Z,33.98
2024-04-30T15:02:24.227Z,33.41
2024-04-30T15:04:53.957Z,33.51
2024-04-30T15:07:20.862Z,33.73
2024-04-30T15:09:56.207Z,33.68
2024-04-30T15:12:23.087Z,33.23
2024-04-30T15:14:55.442Z,32.97
2024-04-30T15:17:22.969Z,33.09
2024-04-30T15:19:54.297Z,33.14
2024-04-30T15:22:21.412Z,33.26
2024-04-30T15:24:50.780Z,33.34
2024-04-30T15:27:17.779Z,33.53
2024-04-30T15:29:47.310Z,33.33
2024-04-30T15:32:17.026Z,33.35
2024-04-30T15:34:46.457Z,32.97
2024-04-30T15:37:13.295Z,32.85
2024-04-30T15:39:44.405Z,32.40
2024-04-30T15:42:11.323Z,31.99
2024-04-30T15:44:41.305Z,31.36
2024-04-30T15:47:08.346Z,31.16
2024-04-30T15:49:41.126Z,31.03
2024-04-30T15:52:08.199Z,31.23
2024-04-30T15:54:37.603Z,31.25
2024-04-30T15:57:05.309Z,31.26
2024-04-30T15:59:35.679Z,30.97
2024-04-30T16:02:03.194Z,30.74
2024-04-30T16:04:32.829Z,30.32
2024-04-30T16:07:02.515Z,29.88
2024-04-30T16:09:31.881Z,29.40
2024-04-30T16:11:58.648Z,29.15
2024-04-30T16:14:28.058Z,28.73
2024-04-30T16:16:54.969Z,28.57
2024-04-30T16:19:24.565Z,28.38
2024-04-30T16:21:54.501Z,28.26
2024-04-30T16:24:27.129Z,28.18
2024-04-30T16:26:55.333Z,28.16
2024-04-30T16:29:24.723Z,27.99
2024-04-30T16:31:51.509Z,27.88
2024-04-30T16:34:20.896Z,27.74
2024-04-30T16:36:47.941Z,27.59
2024-04-30T16:39:17.409Z,27.54
2024-04-30T16:41:46.893Z,27.56
2024-04-30T16:44:16.254Z,27.39
2024-04-30T16:46:43.093Z,27.55
2024-04-30T16:49:12.543Z,27.66
2024-04-30T16:51:39.373Z,27.72
2024-04-30T16:54:09.067Z,27.76
2024-04-30T16:56:39.587Z,27.67
2024-04-30T16:59:11.555Z,27.52
2024-04-30T17:01:40.970Z,27.24
2024-04-30T17:04:10.931Z,26.98
2024-04-30T17:06:47.583Z,26.63
2024-04-30T17:09:16.823Z,26.56
2024-04-30T17:11:46.704Z,26.17
2024-04-30T17:14:16.288Z,25.93
2024-04-30T17:16:46.310Z,25.81
2024-04-30T17:19:13.444Z,25.56
2024-04-30T17:21:46.876Z,25.46
2024-04-30T17:24:14.529Z,25.06
2024-04-30T17:26:48.130Z,24.97
2024-04-30T17:29:20.215Z,24.77
2024-04-30T17:31:49.728Z,24.51
2024-04-30T17:34:19.774Z,24.40
2024-04-30T17:36:49.998Z,24.22
2024-04-30T17:39:20.213Z,24.00
2024-04-30T17:41:47.028Z,23.76
2024-04-30T17:44:16.460Z,23.62
2024-04-30T17:46:45.853Z,23.41
2024-04-30T17:49:15.824Z,23.18
2024-04-30T17:51:43.274Z,22.96
2024-04-30T17:54:12.768Z,22.76
2024-04-30T17:56:42.991Z,22.63
2024-04-30T17:59:10.248Z,22.32
2024-04-30T18:01:39.742Z,22.19
2024-04-30T18:04:09.356Z,22.04
2024-04-30T18:06:38.841Z,21.80
2024-04-30T18:09:07.131Z,21.66
2024-04-30T18:11:36.766Z,21.48
2024-04-30T18:14:03.874Z,21.22
2024-04-30T18:16:34.166Z,21.15
2024-04-30T18:19:01.273Z,20.91
2024-04-30T18:21:35.752Z,20.72
2024-04-30T18:24:04.270Z,20.55
2024-04-30T18:26:33.814Z,20.32
2024-04-30T18:29:00.602Z,20.32
2024-04-30T18:31:31.105Z,20.10
2024-04-30T18:33:58.280Z,19.95
2024-04-30T18:36:27.900Z,19.67
2024-04-30T18:38:57.558Z,19.55
2024-04-30T18:41:31.152Z,19.27
2024-04-30T18:43:59.118Z,19.17
2024-04-30T18:46:28.694Z,19.02
2024-04-30T18:48:55.871Z,18.94
2024-04-30T18:51:25.689Z,18.72
2024-04-30T18:53:52.507Z,18.63
2024-04-30T18:56:24.651Z,18.58
2024-04-30T18:58:51.477Z,18.42
2024-04-30T19:01:21.519Z,18.35
2024-04-30T19:03:51.499Z,18.30
2024-04-30T19:06:22.709Z,18.14
2024-04-30T19:08:49.733Z,18.17
2024-04-30T19:11:20.029Z,18.18
2024-04-30T19:13:49.958Z,18.03
2024-04-30T19:16:19.368Z,17.95
2024-04-30T19:18:46.337Z,17.87
2024-04-30T19:21:16.223Z,17.84
2024-04-30T19:23:43.670Z,17.68
2024-04-30T19:26:17.396Z,17.48
2024-04-30T19:28:44.470Z,17.39
2024-04-30T19:31:23.311Z,17.31
2024-04-30T19:33:50.367Z,17.33
2024-04-30T19:36:22.142Z,17.25
2024-04-30T19:38:49.996Z,17.16
2024-04-30T19:41:21.097Z,17.09
2024-04-30T19:43:48.027Z,16.89
2024-04-30T19:46:21.348Z,16.96
2024-04-30T19:48:52.524Z,16.84
2024-04-30T19:51:23.248Z,16.60
2024-04-30T19:53:51.447Z,16.65
2024-04-30T19:56:21.505Z,16.66
2024-04-30T19:58:51.728Z,16.48
2024-04-30T20:01:24.561Z,16.35
2024-04-30T20:03:57.708Z,16.27
2024-04-30T20:06:25.625Z,16.24
2024-04-30T20:08:55.141Z,16.11
2024-04-30T20:11:25.037Z,15.94
2024-04-30T20:13:56.425Z,16.13
2024-04-30T20:16:25.368Z,16.07
2024-04-30T20:18:57.990Z,15.80
2024-04-30T20:21:25.575Z,15.87
2024-04-30T20:23:55.354Z,15.83
2024-04-30T20:26:22.247Z,15.76
2024-04-30T20:28:51.599Z,15.71
2024-04-30T20:31:21.052Z,15.65
2024-04-30T20:33:47.847Z,15.65
2024-04-30T20:36:22.939Z,15.60
2024-04-30T20:38:49.970Z,15.51
2024-04-30T20:41:19.512Z,15.55
2024-04-30T20:43:46.863Z,15.51
2024-04-30T20:46:16.568Z,15.40
2024-04-30T20:48:46.203Z,15.27
2024-04-30T20:51:15.919Z,15.42
2024-04-30T20:53:47.147Z,15.35
2024-04-30T20:56:16.557Z,15.25
2024-04-30T20:58:43.322Z,15.16
2024-04-30T21:01:17.172Z,15.19
2024-04-30T21:03:44.607Z,15.08
2024-04-30T21:06:14.317Z,15.13
2024-04-30T21:08:41.090Z,15.15
2024-04-30T21:11:17.066Z,15.16
2024-04-30T21:13:43.971Z,15.14
2024-04-30T21:16:13.886Z,15.25
2024-04-30T21:18:41.085Z,15.32
2024-04-30T21:21:10.716Z,15.20
2024-04-30T21:23:39.731Z,15.03
2024-04-30T21:26:10.558Z,14.77
2024-04-30T21:28:43.691Z,14.94
2024-04-30T21:31:10.757Z,14.95
2024-04-30T21:33:43.647Z,15.00
2024-04-30T21:36:11.596Z,15.03
2024-04-30T21:38:41.002Z,14.81
2024-04-30T21:41:08.068Z,14.90
2024-04-30T21:43:37.467Z,14.93
2024-04-30T21:46:07.148Z,14.83
2024-04-30T21:52:24.070Z,14.57
2024-04-30T21:54:50.891Z,14.59
2024-04-30T21:57:20.396Z,14.62
2024-04-30T21:59:47.171Z,14.55
2024-04-30T22:02:19.366Z,14.42
2024-04-30T22:04:46.750Z,14.24
2024-04-30T22:07:20.808Z,14.01
2024-04-30T22:09:48.474Z,14.13
2024-04-30T22:12:18.346Z,14.10
2024-04-30T22:14:45.469Z,14.07
2024-04-30T22:17:15.067Z,14.07
2024-04-30T22:19:44.430Z,13.94
2024-04-30T22:22:14.035Z,14.15
2024-04-30T22:24:41.117Z,14.22
2024-04-30T22:27:10.623Z,14.08
2024-04-30T22:29:37.349Z,14.09
2024-04-30T22:32:08.934Z,14.04
2024-04-30T22:34:35.975Z,14.00
2024-04-30T22:37:07.979Z,13.96
2024-04-30T22:39:35.023Z,14.15
2024-04-30T22:42:04.377Z,14.05
2024-04-30T22:44:34.050Z,13.88
2024-04-30T22:47:00.828Z,13.98
2024-04-30T22:49:31.866Z,13.97
2024-04-30T22:51:58.729Z,13.92
2024-04-30T22:54:30.736Z,13.77
2024-04-30T22:56:57.721Z,13.71
2024-04-30T22:59:27.151Z,13.77
2024-04-30T23:01:54.078Z,13.66
2024-04-30T23:04:23.557Z,13.73
2024-04-30T23:06:50.384Z,13.77
2024-04-30T23:09:19.814Z,13.63
2024-04-30T23:11:49.506Z,13.65
2024-04-30T23:14:19.081Z,13.66
2024-04-30T23:16:45.860Z,13.48
2024-04-30T23:19:15.541Z,13.58
2024-04-30T23:21:42.371Z,13.48
2024-04-30T23:24:12.015Z,13.53
2024-04-30T23:26:39.044Z,13.43
2024-04-30T23:29:10.972Z,13.30
2024-04-30T23:31:37.764Z,13.13
2024-04-30T23:34:07.373Z,13.04
2024-04-30T23:36:34.168Z,12.80
2024-04-30T23:39:03.744Z,12.75
2024-04-30T23:41:30.631Z,12.68
2024-04-30T23:44:00.017Z,12.71
2024-04-30T23:46:29.479Z,12.64
2024-04-30T23:48:59.230Z,12.63
2024-04-30T23:51:26.126Z,12.54
2024-04-30T23:53:55.732Z,12.56
2024-04-30T23:56:22.862Z,12.53
2024-04-30T23:58:52.230Z,12.43
